Time;durP1;ratioP1;P1;durP2;ratioP2;P2;SDS_P1;SDS_P2;PMS_P1;PMS_P2;Temp;Humidity;BMP_temperature;BMP_pressure;BME280_temperature;BME280_humidity;BME280_pressure;Samples;Min_cycle;Max_cycle;Signal;HPM_P1;HPM_P2
2021/04/27 00:02:11;;;;;;;5.87;5.27;;;8.80;99.90;;;;;;5074455;28;20198;-76
2021/04/27 00:04:37;;;;;;;10.63;6.13;;;8.80;99.90;;;;;;5074272;28;20418;-77
2021/04/27 00:07:02;;;;;;;8.13;5.50;;;8.70;99.90;;;;;;5090144;28;20430;-77
2021/04/27 00:09:28;;;;;;;6.47;5.00;;;8.70;99.90;;;;;;5073585;28;20197;-77
2021/04/27 00:11:53;;;;;;;7.23;5.60;;;8.70;99.90;;;;;;5073794;28;20182;-76
2021/04/27 00:14:19;;;;;;;7.87;6.40;;;8.70;99.90;;;;;;5072216;28;20326;-77
2021/04/27 00:16:44;;;;;;;11.17;6.03;;;8.70;99.90;;;;;;5074356;28;20204;-77
2021/04/27 00:19:10;;;;;;;10.20;6.17;;;8.70;99.90;;;;;;5076902;28;20192;-75
2021/04/27 00:21:36;;;;;;;7.20;6.07;;;8.70;99.90;;;;;;5077463;28;20626;-77
2021/04/27 00:24:02;;;;;;;6.23;4.70;;;8.70;99.90;;;;;;5079294;28;20198;-77
2021/04/27 00:26:28;;;;;;;7.20;6.30;;;8.70;99.90;;;;;;5079308;28;20874;-78
2021/04/27 00:28:54;;;;;;;8.47;6.37;;;8.60;99.90;;;;;;5082485;28;20456;-77
2021/04/27 00:31:19;;;;;;;9.43;5.20;;;8.60;99.90;;;;;;5081299;28;20177;-79
2021/04/27 00:33:45;;;;;;;11.90;5.63;;;8.60;99.90;;;;;;5084057;28;20550;-77
2021/04/27 00:36:10;;;;;;;11.27;6.00;;;8.60;99.90;;;;;;5081289;28;20178;-76
2021/04/27 00:38:36;;;;;;;6.13;4.60;;;8.60;99.90;;;;;;5077204;28;20184;-77
2021/04/27 00:41:01;;;;;;;8.20;5.80;;;8.50;99.90;;;;;;5085921;28;20274;-77
2021/04/27 00:43:27;;;;;;;7.13;5.43;;;8.50;99.90;;;;;;5076519;28;20189;-77
2021/04/27 00:45:53;;;;;;;8.27;5.50;;;8.50;99.90;;;;;;5091425;28;20236;-76
2021/04/27 00:48:18;;;;;;;7.00;5.00;;;8.40;99.90;;;;;;5080129;28;20189;-77
2021/04/27 00:50:44;;;;;;;7.07;5.57;;;8.40;99.90;;;;;;5075255;28;20663;-77
2021/04/27 00:53:10;;;;;;;6.47;4.47;;;8.40;99.90;;;;;;5074501;28;20198;-77
2021/04/27 00:55:36;;;;;;;10.20;6.17;;;8.40;99.90;;;;;;5074903;28;20175;-77
2021/04/27 00:58:02;;;;;;;6.00;5.10;;;8.30;99.90;;;;;;5059055;28;20464;-75
2021/04/27 01:00:31;;;;;;;7.93;5.03;;;8.20;99.90;;;;;;5088479;28;20499;-77
2021/04/27 01:02:57;;;;;;;5.43;4.47;;;8.20;99.90;;;;;;5086712;28;20614;-76
2021/04/27 01:05:25;;;;;;;6.07;5.07;;;8.10;99.90;;;;;;5084076;28;20570;-76
2021/04/27 01:08:11;;;;;;;7.67;4.67;;;8.10;99.90;;;;;;5071492;28;20208;-76
2021/04/27 01:10:45;;;;;;;6.63;4.20;;;8.20;99.90;;;;;;5072655;28;20447;-77
2021/04/27 01:13:24;;;;;;;8.50;4.93;;;8.10;99.90;;;;;;5085563;28;20439;-77
2021/04/27 01:15:51;;;;;;;5.07;4.10;;;8.10;99.90;;;;;;5078779;28;20431;-76
2021/04/27 01:18:18;;;;;;;6.23;5.00;;;8.10;99.90;;;;;;5074817;28;20497;-76
2021/04/27 01:20:48;;;;;;;7.50;5.07;;;8.00;99.90;;;;;;5084479;28;20578;-76
2021/04/27 01:23:23;;;;;;;6.93;4.40;;;8.00;99.90;;;;;;5079526;28;20447;-76
2021/04/27 01:26:04;;;;;;;8.53;4.17;;;7.90;99.90;;;;;;5087471;28;20433;-77
2021/04/27 01:28:31;;;;;;;6.50;4.03;;;7.90;99.90;;;;;;5092666;28;20969;-77
2021/04/27 01:30:57;;;;;;;6.57;3.53;;;8.00;99.90;;;;;;5073656;28;20572;-76
2021/04/27 01:33:28;;;;;;;5.43;3.70;;;8.00;99.90;;;;;;5085023;28;20447;-76
2021/04/27 01:35:56;;;;;;;8.53;3.67;;;8.00;99.90;;;;;;5079805;28;20780;-76
2021/04/27 01:38:22;;;;;;;5.67;4.20;;;7.90;99.90;;;;;;5076242;28;20433;-78
2021/04/27 01:40:49;;;;;;;5.07;4.33;;;8.00;99.90;;;;;;5072353;28;20472;-77
2021/04/27 01:43:15;;;;;;;5.37;3.83;;;8.00;99.90;;;;;;5072020;28;20444;-76
2021/04/27 01:45:41;;;;;;;4.10;3.70;;;7.90;99.90;;;;;;5075975;28;20423;-76
2021/04/27 01:48:08;;;;;;;5.07;3.97;;;7.90;99.90;;;;;;5077336;28;20186;-76
2021/04/27 01:50:34;;;;;;;10.10;3.80;;;7.90;99.90;;;;;;5074403;28;20416;-77
2021/04/27 01:53:00;;;;;;;5.00;3.80;;;7.90;99.90;;;;;;5083389;28;20487;-76
2021/04/27 01:55:26;;;;;;;6.03;3.93;;;7.80;99.90;;;;;;5074468;28;20443;-76
2021/04/27 01:57:52;;;;;;;6.37;5.00;;;7.80;99.90;;;;;;5072037;28;20429;-77
2021/04/27 02:00:23;;;;;;;5.03;3.80;;;7.70;99.90;;;;;;5072304;28;20199;-78
2021/04/27 02:02:50;;;;;;;6.63;5.20;;;7.70;99.90;;;;;;5080775;28;20223;-77
2021/04/27 02:05:15;;;;;;;5.10;3.30;;;7.70;99.90;;;;;;5078162;28;20933;-76
2021/04/27 02:07:42;;;;;;;5.60;3.90;;;7.60;99.90;;;;;;5079247;28;20561;-76
2021/04/27 02:10:10;;;;;;;7.17;4.57;;;7.60;99.90;;;;;;5063646;28;20177;-78
2021/04/27 02:12:39;;;;;;;5.00;4.37;;;7.60;99.90;;;;;;5074181;28;20436;-76
2021/04/27 02:15:07;;;;;;;4.80;3.90;;;7.60;99.90;;;;;;5085477;28;20790;-76
2021/04/27 02:17:44;;;;;;;6.60;4.43;;;7.50;99.90;;;;;;5073360;28;20420;-77
2021/04/27 02:20:10;;;;;;;8.03;4.30;;;7.50;99.90;;;;;;5075986;28;20517;-76
2021/04/27 02:22:37;;;;;;;9.00;4.47;;;7.40;99.90;;;;;;5074804;28;20441;-78
2021/04/27 02:25:05;;;;;;;7.40;4.00;;;7.30;99.90;;;;;;5079889;28;20424;-76
2021/04/27 02:27:34;;;;;;;7.33;4.43;;;7.30;99.90;;;;;;5088947;28;20542;-77
2021/04/27 02:30:02;;;;;;;4.53;4.03;;;7.30;99.90;;;;;;5074498;28;20423;-76
2021/04/27 02:32:28;;;;;;;5.23;4.10;;;7.20;99.90;;;;;;5075527;28;20432;-76
2021/04/27 02:34:53;;;;;;;5.00;4.47;;;7.20;99.90;;;;;;5076513;28;21002;-76
2021/04/27 02:37:19;;;;;;;4.73;3.93;;;7.20;99.90;;;;;;5081902;28;20194;-77
2021/04/27 02:39:45;;;;;;;4.50;3.27;;;7.10;99.90;;;;;;5079395;28;20194;-76
2021/04/27 02:42:11;;;;;;;8.13;4.10;;;7.10;99.90;;;;;;5077718;28;20674;-76
2021/04/27 02:44:37;;;;;;;7.43;4.40;;;7.00;99.90;;;;;;5081824;28;20426;-76
2021/04/27 02:47:03;;;;;;;4.30;3.63;;;7.00;99.90;;;;;;5078187;28;20269;-76
2021/04/27 02:49:29;;;;;;;4.13;3.23;;;7.00;99.90;;;;;;5071045;28;20431;-76
2021/04/27 02:51:54;;;;;;;11.80;9.07;;;6.90;99.90;;;;;;5077127;28;20434;-77
2021/04/27 02:54:20;;;;;;;8.83;5.87;;;6.90;99.90;;;;;;5085130;28;20451;-76
2021/04/27 02:56:46;;;;;;;7.00;5.57;;;6.90;99.90;;;;;;5085984;28;20204;-76
2021/04/27 02:59:11;;;;;;;5.07;3.80;;;6.90;99.90;;;;;;5075197;28;20178;-76
2021/04/27 03:01:37;;;;;;;4.47;3.00;;;6.80;99.90;;;;;;5075896;28;20463;-77
2021/04/27 03:04:03;;;;;;;4.47;3.83;;;6.80;99.90;;;;;;5083961;28;20282;-76
2021/04/27 03:06:29;;;;;;;6.27;3.50;;;6.80;99.90;;;;;;5081305;28;20179;-76
2021/04/27 03:08:55;;;;;;;4.67;3.47;;;6.80;99.90;;;;;;5078915;28;20428;-76
2021/04/27 03:11:20;;;;;;;5.03;3.30;;;6.80;99.90;;;;;;5079556;28;20319;-76
2021/04/27 03:13:46;;;;;;;5.80;3.10;;;6.70;99.90;;;;;;5080004;28;20201;-76
2021/04/27 03:16:12;;;;;;;7.90;4.50;;;6.70;99.90;;;;;;5070255;28;20642;-76
2021/04/27 03:18:38;;;;;;;8.87;3.27;;;6.70;99.90;;;;;;5074774;28;20179;-76
2021/04/27 03:21:04;;;;;;;5.53;4.60;;;6.70;99.90;;;;;;5069280;28;20216;-76
2021/04/27 03:23:29;;;;;;;5.93;4.33;;;6.60;99.90;;;;;;5069101;28;20672;-76
2021/04/27 03:25:55;;;;;;;4.70;3.20;;;6.70;99.90;;;;;;5072451;28;20428;-75
2021/04/27 03:28:21;;;;;;;4.60;3.60;;;6.60;99.90;;;;;;5072175;28;20265;-77
2021/04/27 03:30:47;;;;;;;5.90;3.73;;;6.60;99.90;;;;;;5074659;28;20178;-77
2021/04/27 03:33:12;;;;;;;3.03;2.60;;;6.60;99.90;;;;;;5085532;28;20202;-77
2021/04/27 03:35:42;;;;;;;4.30;3.27;;;6.50;99.90;;;;;;5073683;28;20196;-76
2021/04/27 03:38:08;;;;;;;4.23;3.73;;;6.50;99.90;;;;;;5082274;28;20228;-76
2021/04/27 03:40:33;;;;;;;5.17;2.77;;;6.50;99.90;;;;;;5074277;28;20459;-76
2021/04/27 03:42:59;;;;;;;5.27;3.50;;;6.40;99.90;;;;;;5071484;28;20202;-76
2021/04/27 03:45:35;;;;;;;7.13;4.00;;;6.40;99.90;;;;;;5070421;28;20169;-76
2021/04/27 03:48:03;;;;;;;4.93;3.40;;;6.40;99.90;;;;;;5072535;28;20722;-76
2021/04/27 03:50:29;;;;;;;3.93;3.03;;;6.40;99.90;;;;;;5085015;28;20460;-77
2021/04/27 03:52:54;;;;;;;5.00;3.80;;;6.40;99.90;;;;;;5085271;28;20479;-77
2021/04/27 03:55:20;;;;;;;6.63;3.40;;;6.30;99.90;;;;;;5075692;28;20599;-76
2021/04/27 03:57:46;;;;;;;4.17;2.90;;;6.40;99.90;;;;;;5085650;28;20177;-76
2021/04/27 04:00:12;;;;;;;3.80;3.20;;;6.30;99.90;;;;;;5076204;28;20184;-76
2021/04/27 04:02:37;;;;;;;3.87;2.90;;;6.30;99.90;;;;;;5083821;28;20335;-76
2021/04/27 04:05:03;;;;;;;3.83;3.33;;;6.30;99.90;;;;;;5082067;28;20522;-76
2021/04/27 04:07:29;;;;;;;5.03;3.63;;;6.30;99.90;;;;;;5077275;28;20182;-76
2021/04/27 04:09:54;;;;;;;7.93;3.30;;;6.20;99.90;;;;;;5087428;28;20416;-76
2021/04/27 04:12:20;;;;;;;10.50;3.07;;;6.20;99.90;;;;;;5082992;28;20562;-76
2021/04/27 04:14:45;;;;;;;4.03;2.77;;;6.20;99.90;;;;;;5086163;28;20173;-76
2021/04/27 04:17:11;;;;;;;4.93;3.40;;;6.20;99.90;;;;;;5085453;28;20676;-76
2021/04/27 04:19:37;;;;;;;4.00;3.47;;;6.20;99.90;;;;;;5075580;28;20166;-76
2021/04/27 04:22:06;;;;;;;8.03;3.30;;;6.10;99.90;;;;;;5077785;28;20204;-76
2021/04/27 04:24:32;;;;;;;3.23;2.90;;;6.10;99.90;;;;;;5086135;28;20423;-76
2021/04/27 04:26:58;;;;;;;4.50;3.87;;;6.10;99.90;;;;;;5071389;28;20798;-76
2021/04/27 04:29:25;;;;;;;6.60;2.80;;;6.00;99.90;;;;;;5073111;28;20182;-77
2021/04/27 04:31:51;;;;;;;6.57;3.80;;;5.90;99.90;;;;;;5082963;28;20431;-76
2021/04/27 04:34:17;;;;;;;3.70;2.90;;;6.00;99.90;;;;;;5084828;28;20502;-77
2021/04/27 04:36:43;;;;;;;5.93;3.70;;;6.00;99.90;;;;;;5077922;28;20916;-76
2021/04/27 04:39:08;;;;;;;3.47;3.17;;;6.00;99.90;;;;;;5076444;28;20845;-76
2021/04/27 04:41:34;;;;;;;4.30;3.50;;;6.00;99.90;;;;;;5079108;28;20285;-76
2021/04/27 04:44:00;;;;;;;3.93;3.20;;;6.00;99.90;;;;;;5078763;28;20670;-78
2021/04/27 04:46:26;;;;;;;3.40;3.10;;;6.00;99.90;;;;;;5076389;28;20419;-76
2021/04/27 04:48:51;;;;;;;4.87;3.30;;;6.00;99.90;;;;;;5072564;28;20650;-76
2021/04/27 04:51:17;;;;;;;11.73;3.57;;;6.00;99.90;;;;;;5087989;28;20701;-77
2021/04/27 04:53:42;;;;;;;4.97;3.33;;;6.00;99.90;;;;;;5076838;28;20205;-75
2021/04/27 04:56:08;;;;;;;5.80;4.00;;;6.10;99.90;;;;;;5081172;28;20259;-75
2021/04/27 04:58:34;;;;;;;4.03;3.20;;;6.10;99.90;;;;;;5085230;28;20174;-75
2021/04/27 05:00:59;;;;;;;10.83;3.33;;;6.20;99.90;;;;;;5072868;28;20194;-75
2021/04/27 05:03:25;;;;;;;3.53;3.17;;;6.20;99.90;;;;;;5073591;28;20575;-75
2021/04/27 05:05:51;;;;;;;5.70;3.50;;;6.30;99.90;;;;;;5081273;28;20185;-76
2021/04/27 05:08:22;;;;;;;4.50;2.57;;;6.40;99.90;;;;;;5085451;28;20188;-75
2021/04/27 05:10:48;;;;;;;314.90;175.97;;;6.60;99.90;;;;;;5079739;28;20455;-77
2021/04/27 05:13:14;;;;;;;13.90;9.20;;;6.70;99.90;;;;;;5086827;28;20578;-77
2021/04/27 05:15:40;;;;;;;8.80;3.53;;;6.80;99.90;;;;;;5085478;28;20884;-77
2021/04/27 05:18:07;;;;;;;4.10;2.97;;;7.00;99.90;;;;;;5078828;28;20537;-77
2021/04/27 05:20:33;;;;;;;3.40;3.10;;;7.20;99.90;;;;;;5077772;28;20198;-76
2021/04/27 05:23:00;;;;;;;5.37;3.27;;;7.50;99.90;;;;;;5080154;28;20575;-77
2021/04/27 05:25:27;;;;;;;3.60;3.20;;;7.50;99.90;;;;;;5066370;28;20198;-76
2021/04/27 05:27:52;;;;;;;3.37;3.00;;;7.60;99.90;;;;;;5085933;28;20420;-77
2021/04/27 05:30:19;;;;;;;4.70;2.90;;;7.70;99.90;;;;;;5093060;28;20427;-77
2021/04/27 05:32:44;;;;;;;4.80;3.10;;;7.80;99.90;;;;;;5079045;28;20237;-77
2021/04/27 05:35:10;;;;;;;4.90;3.13;;;8.20;99.90;;;;;;5082060;28;20456;-76
2021/04/27 05:37:36;;;;;;;4.40;3.60;;;8.60;99.90;;;;;;5072601;28;20232;-77
2021/04/27 05:40:04;;;;;;;3.23;2.93;;;9.20;99.90;;;;;;5078699;28;20440;-77
2021/04/27 05:42:29;;;;;;;5.77;3.40;;;9.30;99.90;;;;;;5077072;28;20207;-77
2021/04/27 05:44:55;;;;;;;3.67;2.53;;;9.80;99.90;;;;;;5078233;28;20460;-77
2021/04/27 05:47:20;;;;;;;6.70;2.40;;;9.80;97.90;;;;;;5073138;28;20166;-77
2021/04/27 05:49:46;;;;;;;2.50;2.30;;;9.90;98.00;;;;;;5085330;28;20174;-78
2021/04/27 05:52:12;;;;;;;9.93;3.23;;;10.00;97.00;;;;;;5079862;28;20298;-76
2021/04/27 05:54:37;;;;;;;3.97;2.80;;;10.40;96.50;;;;;;5077124;28;20212;-76
2021/04/27 05:57:03;;;;;;;3.07;2.77;;;11.10;96.70;;;;;;5086385;28;20181;-77
2021/04/27 05:59:29;;;;;;;2.90;2.37;;;11.20;90.90;;;;;;5078423;28;20255;-77
2021/04/27 06:01:54;;;;;;;5.03;2.60;;;11.70;90.50;;;;;;5081611;28;20287;-78
2021/04/27 06:04:20;;;;;;;5.37;2.70;;;11.70;86.00;;;;;;5074167;28;20204;-77
2021/04/27 06:06:45;;;;;;;5.90;2.70;;;11.80;80.10;;;;;;5082327;28;20172;-77
2021/04/27 06:09:15;;;;;;;3.90;2.53;;;12.10;82.70;;;;;;5077132;28;20234;-77
2021/04/27 06:11:40;;;;;;;3.10;2.63;;;12.00;74.70;;;;;;5074910;28;20178;-77
2021/04/27 06:14:06;;;;;;;3.00;2.80;;;12.10;76.50;;;;;;5072584;28;20450;-77
2021/04/27 06:16:32;;;;;;;4.90;2.73;;;12.00;70.50;;;;;;5072965;28;20177;-77
2021/04/27 06:18:57;;;;;;;3.80;3.47;;;12.60;75.10;;;;;;5073297;28;20182;-76
2021/04/27 06:21:23;;;;;;;3.63;2.90;;;12.60;68.80;;;;;;5071586;28;20535;-77
2021/04/27 06:23:49;;;;;;;4.33;3.23;;;12.80;70.00;;;;;;5072806;28;20635;-78
2021/04/27 06:26:14;;;;;;;4.00;2.60;;;12.70;66.70;;;;;;5073413;28;20230;-78
2021/04/27 06:28:40;;;;;;;2.67;2.43;;;13.00;69.50;;;;;;5074819;28;20180;-78
2021/04/27 06:31:06;;;;;;;4.33;2.47;;;12.50;61.80;;;;;;5070790;28;20209;-78
2021/04/27 06:33:31;;;;;;;5.10;2.50;;;12.30;62.00;;;;;;5075646;28;20200;-78
2021/04/27 06:35:57;;;;;;;3.90;2.23;;;12.20;61.90;;;;;;5071921;28;20179;-78
2021/04/27 06:38:23;;;;;;;3.30;2.57;;;12.60;63.50;;;;;;5068080;28;20190;-78
2021/04/27 06:40:51;;;;;;;3.40;2.97;;;12.50;62.40;;;;;;5066960;28;20221;-78
2021/04/27 06:43:17;;;;;;;3.93;3.00;;;12.10;60.10;;;;;;5078950;28;20220;-78
2021/04/27 06:45:43;;;;;;;2.20;2.00;;;11.80;59.60;;;;;;5077210;28;20417;-77
2021/04/27 06:48:09;;;;;;;8.23;2.27;;;12.40;62.30;;;;;;5079065;28;20428;-78
2021/04/27 06:50:36;;;;;;;3.10;2.80;;;12.60;59.20;;;;;;5079349;28;20181;-78
2021/04/27 06:53:02;;;;;;;3.80;2.37;;;13.20;59.70;;;;;;5077412;28;20206;-78
2021/04/27 06:55:28;;;;;;;3.13;2.73;;;13.50;58.60;;;;;;5079191;28;20436;-78
2021/04/27 06:57:54;;;;;;;3.03;2.57;;;13.90;56.90;;;;;;5078838;28;20239;-78
2021/04/27 07:00:20;;;;;;;3.07;2.77;;;13.40;54.50;;;;;;5075532;28;20420;-77
2021/04/27 07:02:45;;;;;;;3.80;2.33;;;13.40;55.20;;;;;;5089504;28;20433;-78
2021/04/27 07:05:11;;;;;;;4.13;2.87;;;13.40;56.80;;;;;;5074665;28;20435;-78
2021/04/27 07:07:37;;;;;;;5.67;2.13;;;13.60;54.90;;;;;;5074478;28;20169;-77
2021/04/27 07:10:03;;;;;;;4.17;2.47;;;13.90;54.50;;;;;;5072891;28;20428;-78
2021/04/27 07:12:29;;;;;;;5.30;2.60;;;14.30;55.50;;;;;;5074120;28;20212;-77
2021/04/27 07:14:55;;;;;;;3.87;2.60;;;15.00;55.50;;;;;;5091110;28;20428;-77
2021/04/27 07:17:20;;;;;;;3.87;2.80;;;15.40;52.00;;;;;;5076582;28;20606;-77
2021/04/27 07:19:46;;;;;;;3.00;2.20;;;15.70;51.80;;;;;;5091376;28;20250;-78
2021/04/27 07:22:11;;;;;;;5.33;2.87;;;15.80;50.40;;;;;;5074053;28;20194;-78
2021/04/27 07:24:37;;;;;;;3.40;2.50;;;15.80;49.50;;;;;;5073930;28;20170;-78
2021/04/27 07:27:03;;;;;;;5.33;3.30;;;15.40;48.20;;;;;;5076449;28;20166;-78
2021/04/27 07:29:29;;;;;;;16.80;12.53;;;15.40;49.50;;;;;;5072297;28;20415;-79
2021/04/27 07:31:54;;;;;;;4.90;2.83;;;15.80;48.60;;;;;;5072863;28;20432;-78
2021/04/27 07:34:20;;;;;;;12.23;3.13;;;16.10;49.20;;;;;;5075323;28;20197;-80
2021/04/27 07:36:46;;;;;;;4.03;2.80;;;16.40;49.40;;;;;;5075534;28;20170;-79
2021/04/27 07:39:14;;;;;;;7.10;2.70;;;16.20;46.20;;;;;;5077722;28;20170;-77
2021/04/27 07:41:40;;;;;;;3.50;2.73;;;15.80;48.10;;;;;;5075581;28;20220;-78
2021/04/27 07:44:06;;;;;;;4.80;2.67;;;15.80;47.60;;;;;;5077000;28;20439;-79
2021/04/27 07:46:33;;;;;;;2.53;2.30;;;15.20;46.50;;;;;;5076308;28;20941;-79
2021/04/27 07:48:59;;;;;;;6.80;3.03;;;14.50;47.60;;;;;;5090388;28;20209;-79
2021/04/27 07:51:24;;;;;;;16.60;3.50;;;14.10;48.20;;;;;;5080993;28;20431;-79
2021/04/27 07:53:50;;;;;;;3.23;2.93;;;14.40;50.20;;;;;;5083304;28;20288;-79
2021/04/27 07:56:16;;;;;;;5.37;3.20;;;14.70;50.20;;;;;;5083334;28;20432;-79
2021/04/27 07:58:41;;;;;;;3.17;2.43;;;15.50;50.20;;;;;;5093262;28;20698;-79
2021/04/27 08:01:07;;;;;;;3.73;2.90;;;15.40;47.80;;;;;;5076732;28;20548;-79
2021/04/27 08:03:32;;;;;;;4.77;2.80;;;15.70;46.90;;;;;;5077649;28;20251;-78
2021/04/27 08:05:58;;;;;;;3.97;3.17;;;15.50;46.30;;;;;;5080872;28;20174;-79
2021/04/27 08:08:24;;;;;;;3.77;2.73;;;16.10;47.70;;;;;;5088197;28;20170;-79
2021/04/27 08:10:49;;;;;;;6.63;3.17;;;15.70;46.20;;;;;;5071055;28;20206;-79
2021/04/27 08:13:15;;;;;;;3.37;3.07;;;15.70;46.60;;;;;;5090523;28;20219;-80
2021/04/27 08:15:41;;;;;;;5.93;3.07;;;15.50;46.30;;;;;;5081644;28;20177;-78
2021/04/27 08:18:08;;;;;;;2.70;2.50;;;15.40;47.00;;;;;;5086243;28;20423;-78
2021/04/27 08:20:35;;;;;;;3.60;3.20;;;15.70;48.20;;;;;;5086881;28;20451;-78
2021/04/27 08:23:01;;;;;;;3.90;3.07;;;15.50;46.30;;;;;;5083028;28;20961;-78
2021/04/27 08:25:26;;;;;;;6.40;3.80;;;15.40;47.00;;;;;;5072927;28;20432;-79
2021/04/27 08:27:52;;;;;;;2.53;2.30;;;14.80;45.50;;;;;;5089492;28;20964;-79
2021/04/27 08:30:21;;;;;;;3.60;2.93;;;15.20;47.30;;;;;;5081862;28;20189;-79
2021/04/27 08:32:47;;;;;;;4.20;2.87;;;14.90;46.40;;;;;;5083738;28;20307;-78
2021/04/27 08:35:14;;;;;;;4.50;2.80;;;15.10;47.10;;;;;;5081285;28;20460;-77
2021/04/27 08:37:40;;;;;;;4.93;2.97;;;15.80;49.00;;;;;;5095422;28;20403;-79
2021/04/27 08:40:07;;;;;;;2.93;2.63;;;16.50;46.80;;;;;;5058284;28;20432;-79
2021/04/27 08:42:35;;;;;;;3.83;2.70;;;17.50;48.30;;;;;;5079521;28;20456;-79
2021/04/27 08:45:03;;;;;;;4.10;3.20;;;17.40;45.10;;;;;;5088059;28;21113;-80
2021/04/27 08:47:28;;;;;;;3.50;2.70;;;18.20;45.90;;;;;;5073760;28;20942;-80
2021/04/27 08:49:54;;;;;;;5.33;3.90;;;17.70;44.10;;;;;;5061843;28;20433;-78
2021/04/27 08:52:20;;;;;;;5.00;3.27;;;18.00;44.10;;;;;;5074406;28;20659;-79
2021/04/27 08:54:45;;;;;;;6.10;3.80;;;18.50;44.10;;;;;;5079367;28;20639;-80
2021/04/27 08:57:12;;;;;;;8.03;3.33;;;19.20;43.80;;;;;;5080384;28;20508;-79
2021/04/27 08:59:38;;;;;;;10.87;5.57;;;19.00;40.90;;;;;;5076780;28;20213;-79
2021/04/27 09:02:04;;;;;;;5.20;3.20;;;18.50;42.50;;;;;;5092778;28;20514;-79
2021/04/27 09:04:42;;;;;;;6.10;3.20;;;18.70;43.20;;;;;;5076262;28;20260;-79
2021/04/27 09:07:10;;;;;;;3.10;2.80;;;18.60;41.10;;;;;;5076811;28;20427;-79
2021/04/27 09:09:41;;;;;;;3.93;3.00;;;19.20;44.60;;;;;;5078717;28;20424;-79
2021/04/27 09:12:07;;;;;;;3.30;3.00;;;18.50;41.70;;;;;;5079010;28;20554;-80
2021/04/27 09:14:35;;;;;;;9.13;4.37;;;19.10;42.30;;;;;;5077525;28;20428;-80
2021/04/27 09:17:03;;;;;;;3.53;3.23;;;19.10;41.20;;;;;;5080883;28;20455;-80
2021/04/27 09:19:44;;;;;;;4.30;3.30;;;18.80;39.80;;;;;;5077212;28;20416;-80
2021/04/27 09:22:21;;;;;;;4.10;3.00;;;19.40;41.60;;;;;;5077069;28;20510;-79
2021/04/27 09:24:50;;;;;;;4.67;3.07;;;19.00;39.80;;;;;;5079596;28;20882;-79
2021/04/27 09:27:27;;;;;;;4.77;3.07;;;18.20;39.70;;;;;;5077646;28;20446;-80
2021/04/27 09:29:53;;;;;;;8.67;3.60;;;18.50;42.50;;;;;;5079232;28;20873;-80
2021/04/27 09:32:34;;;;;;;10.63;3.30;;;19.00;43.30;;;;;;5072720;28;20471;-79
2021/04/27 09:35:39;;;;;;;4.30;2.97;;;20.00;42.90;;;;;;5074810;28;20526;-81
2021/04/27 09:38:21;;;;;;;4.67;3.27;;;20.10;39.70;;;;;;5065989;28;21138;-81
2021/04/27 09:41:04;;;;;;;3.87;3.10;;;20.70;42.60;;;;;;5073974;28;20464;-81
2021/04/27 09:43:41;;;;;;;3.40;2.93;;;20.90;39.70;;;;;;5085334;28;20451;-79
2021/04/27 09:46:18;;;;;;;3.60;3.23;;;20.60;38.00;;;;;;5078319;28;20420;-80
2021/04/27 09:48:55;;;;;;;4.37;2.97;;;20.70;38.70;;;;;;5085648;28;20459;-81
2021/04/27 09:51:24;;;;;;;3.57;3.27;;;21.10;39.80;;;;;;5084694;28;20438;-82
2021/04/27 09:53:59;;;;;;;3.40;3.10;;;21.00;39.20;;;;;;5073364;28;20898;-81
2021/04/27 09:56:35;;;;;;;4.60;3.60;;;21.60;38.10;;;;;;5075207;28;20783;-80
2021/04/27 09:59:11;;;;;;;5.40;3.50;;;21.90;38.10;;;;;;5091563;28;20432;-80
2021/04/27 10:01:37;;;;;;;4.53;3.50;;;22.00;37.20;;;;;;5085935;28;20486;-79
2021/04/27 10:04:03;;;;;;;3.90;3.50;;;20.50;36.50;;;;;;5075531;28;20479;-82
2021/04/27 10:06:29;;;;;;;3.13;2.90;;;21.20;38.50;;;;;;5076105;28;20440;-83
2021/04/27 10:08:57;;;;;;;3.63;3.23;;;21.60;38.20;;;;;;5076821;28;20435;-82
2021/04/27 10:11:26;;;;;;;5.00;4.07;;;22.20;36.30;;;;;;5085963;28;20265;-80
2021/04/27 10:13:54;;;;;;;5.10;3.60;;;22.20;36.70;;;;;;5083367;28;20455;-81
2021/04/27 10:16:25;;;;;;;4.53;4.13;;;22.60;36.40;;;;;;5090415;28;20433;-81
2021/04/27 10:18:54;;;;;;;4.73;3.27;;;23.10;36.40;;;;;;5080736;28;20492;-81
2021/04/27 10:21:20;;;;;;;3.53;3.17;;;23.20;35.70;;;;;;5076376;28;20479;-82
2021/04/27 10:23:52;;;;;;;5.50;4.20;;;23.60;34.60;;;;;;5073863;28;20428;-81
2021/04/27 10:26:23;;;;;;;6.50;4.00;;;23.60;33.80;;;;;;5074543;28;20413;-81
2021/04/27 10:29:07;;;;;;;4.93;3.67;;;23.00;33.80;;;;;;5081359;28;20420;-79
2021/04/27 10:31:35;;;;;;;5.27;3.63;;;23.40;33.40;;;;;;5074649;28;20428;-81
2021/04/27 10:34:08;;;;;;;5.33;3.90;;;23.80;33.90;;;;;;5075368;28;20463;-81
2021/04/27 10:36:46;;;;;;;7.10;3.37;;;24.00;32.70;;;;;;5084625;28;20426;-80
2021/04/27 10:39:12;;;;;;;4.93;4.20;;;24.50;34.50;;;;;;5077952;28;20907;-82
2021/04/27 10:41:58;;;;;;;5.20;3.50;;;24.10;33.90;;;;;;5073417;28;20460;-80
2021/04/27 10:44:24;;;;;;;3.80;3.33;;;24.20;32.10;;;;;;5075852;28;20300;-78
2021/04/27 10:46:59;;;;;;;4.13;3.73;;;24.40;32.30;;;;;;5074113;28;20471;-80
2021/04/27 10:49:31;;;;;;;4.73;3.13;;;24.40;34.50;;;;;;5086872;28;20427;-81
2021/04/27 10:51:58;;;;;;;12.50;3.93;;;24.40;33.90;;;;;;5086896;28;20432;-81
2021/04/27 10:54:28;;;;;;;7.73;3.57;;;23.90;31.60;;;;;;5099775;28;20452;-81
2021/04/27 10:57:03;;;;;;;4.40;4.00;;;23.90;33.50;;;;;;5089966;28;20443;-81
2021/04/27 10:59:49;;;;;;;6.20;3.47;;;24.30;33.30;;;;;;5086686;28;20913;-80
2021/04/27 11:02:21;;;;;;;4.13;3.83;;;24.50;32.20;;;;;;5074812;28;20463;-80
2021/04/27 11:04:56;;;;;;;4.50;3.80;;;24.50;32.40;;;;;;5074711;28;20451;-81
2021/04/27 11:07:24;;;;;;;4.20;3.80;;;24.10;31.40;;;;;;5080159;28;20522;-81
2021/04/27 11:10:07;;;;;;;3.83;3.53;;;24.30;33.50;;;;;;5086438;28;20577;-81
2021/04/27 11:12:52;;;;;;;3.70;3.40;;;24.70;33.50;;;;;;5092505;28;20478;-81
2021/04/27 11:15:23;;;;;;;4.00;3.40;;;24.60;33.20;;;;;;5083754;28;20423;-79
2021/04/27 11:18:02;;;;;;;4.67;3.63;;;23.30;30.50;;;;;;5093670;28;21023;-81
2021/04/27 11:20:47;;;;;;;4.07;3.67;;;23.50;32.20;;;;;;5089609;28;20443;-81
2021/04/27 11:23:33;;;;;;;8.90;3.77;;;23.40;32.10;;;;;;5079598;28;20486;-81
2021/04/27 11:25:58;;;;;;;4.53;4.10;;;23.10;32.30;;;;;;5076500;28;20439;-79
2021/04/27 11:28:50;;;;;;;4.60;4.20;;;23.20;31.10;;;;;;5076988;28;20420;-78
2021/04/27 11:31:18;;;;;;;4.60;3.90;;;22.40;31.60;;;;;;5063530;28;20202;-80
2021/04/27 11:33:53;;;;;;;3.90;3.60;;;21.70;32.20;;;;;;5073803;28;20449;-79
2021/04/27 11:36:36;;;;;;;4.27;3.83;;;22.20;33.00;;;;;;5080981;28;20738;-80
2021/04/27 11:39:10;;;;;;;4.40;3.37;;;22.40;33.40;;;;;;5079336;28;20994;-81
2021/04/27 11:41:45;;;;;;;4.17;3.70;;;22.60;32.90;;;;;;5079266;28;20444;-79
2021/04/27 11:44:11;;;;;;;4.00;3.70;;;22.00;32.70;;;;;;5079178;28;20452;-81
2021/04/27 11:46:56;;;;;;;5.10;3.90;;;22.10;32.20;;;;;;5075243;28;20425;-80
2021/04/27 11:49:42;;;;;;;6.80;4.10;;;21.50;31.60;;;;;;5077665;28;20245;-80
2021/04/27 11:52:07;;;;;;;6.47;3.97;;;21.80;31.90;;;;;;5075737;28;20478;-80
2021/04/27 11:54:36;;;;;;;4.83;4.10;;;22.00;32.60;;;;;;5077492;28;20420;-79
2021/04/27 11:57:03;;;;;;;4.80;4.50;;;22.80;31.60;;;;;;5076686;28;20173;-80
2021/04/27 11:59:29;;;;;;;4.23;3.83;;;23.50;33.10;;;;;;5079172;28;20421;-80
2021/04/27 12:02:01;;;;;;;3.80;3.40;;;23.70;32.20;;;;;;5079052;28;20435;-80
2021/04/27 12:04:27;;;;;;;4.70;4.10;;;23.80;34.30;;;;;;5075632;28;20170;-80
2021/04/27 12:07:03;;;;;;;5.60;4.10;;;23.80;30.10;;;;;;5074875;28;20435;-81
2021/04/27 12:09:44;;;;;;;4.77;4.30;;;23.80;30.50;;;;;;5080485;28;20170;-80
2021/04/27 12:12:11;;;;;;;3.93;3.53;;;22.90;30.00;;;;;;5095114;28;20527;-81
2021/04/27 12:14:38;;;;;;;4.03;3.73;;;23.70;31.80;;;;;;5078972;28;20413;-80
2021/04/27 12:17:03;;;;;;;4.83;4.00;;;23.50;31.20;;;;;;5080601;28;20424;-80
2021/04/27 12:19:29;;;;;;;4.37;3.97;;;23.40;34.10;;;;;;5078613;28;20413;-80
2021/04/27 12:21:59;;;;;;;4.70;3.70;;;23.70;31.90;;;;;;5095712;28;20166;-79
2021/04/27 12:24:39;;;;;;;4.17;3.83;;;23.80;31.40;;;;;;5079388;28;20190;-80
2021/04/27 12:27:07;;;;;;;4.93;4.23;;;23.80;31.30;;;;;;5077820;28;20416;-81
2021/04/27 12:30:00;;;;;;;3.77;3.47;;;24.00;31.10;;;;;;5076634;28;20491;-80
2021/04/27 12:32:28;;;;;;;4.27;3.83;;;24.40;30.30;;;;;;5076607;28;20460;-80
2021/04/27 12:35:09;;;;;;;3.80;3.40;;;24.90;33.10;;;;;;5075580;28;20546;-80
2021/04/27 12:37:40;;;;;;;4.40;4.00;;;25.20;31.50;;;;;;5077957;28;20948;-82
2021/04/27 12:40:14;;;;;;;4.40;4.00;;;25.20;29.40;;;;;;5072143;28;20566;-81
2021/04/27 12:42:49;;;;;;;4.23;3.80;;;24.50;29.50;;;;;;5078926;28;20440;-81
2021/04/27 12:45:16;;;;;;;5.97;4.30;;;24.30;30.20;;;;;;5077802;28;20792;-80
2021/04/27 12:47:44;;;;;;;7.70;4.53;;;23.90;29.70;;;;;;5078006;28;20424;-80
2021/04/27 12:50:12;;;;;;;4.57;4.17;;;23.30;29.20;;;;;;5077638;28;20416;-81
2021/04/27 12:52:41;;;;;;;4.30;3.83;;;23.40;29.10;;;;;;5070308;28;20992;-80
2021/04/27 12:55:17;;;;;;;4.03;3.33;;;23.80;30.50;;;;;;5076505;28;20849;-80
2021/04/27 12:57:43;;;;;;;3.40;3.20;;;24.30;31.00;;;;;;5076589;28;20893;-81